Pagina principale
METAR-TAF:

METAR-TAF

Aeroporti :

Grazzanise, Italia

latitudine: 41-03N, longitudine: 014-04E, altezza: 9 m

Osservazione

Il bollettino è stato emesso 27 minuti fa, alle 12:55 UTC
Vento 15 kt da nord/nord-est
Temperature 7°C
Umidità 53%
Pressione 1030 hPa
Visibilità 10 km o più
Poco nuvoloso ad un'altezza di 3000 ft
Nuvoloso ad un'altezza di 6000 ft

METAR: LIRM 091255Z 02015KT 9999 FEW030 BKN060 07/M02 Q1030 RMK OVC VIS MIN 9999 WIND THR06 05018KT BLU

Ora: 14:22 (13:22 UTC)

Previsione

Il bollettino è stato emesso 2 ore e 22 minuti fa, alle 11:00 UTC
Previsione valida dal 09 alle 12 UTC al 09 alle 21 UTC
Vento 16 kt da nord-est
Visibilità 10 km o più
Poco nuvoloso ad un'altezza di 3000 ft
Nuvoloso ad un'altezza di 6000 ft

TAF: LIRM 091100Z 0912/0921 05016KT 9999 FEW030 BKN060

Osservazioni e previsioni meteorologiche di più di 4000 aeroporti (messaggi METAR e TAF).

Le stazioni disponibili sono rappresentate dai dischi gialli e rossi sulla carta.

Puntare il mouse per vedere il nome della stazione.

Clicca sopra per visualizzare le osservazioni e previsioni meteorologiche.

Per cambiare la mappa : fare clic sui pulsanti verdi con una croce nera per ingrandire, il pulsante verde con un trattino per diminuire, o sulla freccia verde per le mappe adiacenti.


METAR-TAF: